createdAt,value
2022-11-20T00:01:25.681Z,23.75
2022-11-20T00:03:54.336Z,29.52
2022-11-20T00:06:22.064Z,23.80
2022-11-20T00:08:49.207Z,24.33
2022-11-20T00:11:21.143Z,23.83
2022-11-20T00:13:50.365Z,21.40
2022-11-20T00:16:19.808Z,22.10
2022-11-20T00:21:35.915Z,24.85
2022-11-20T00:24:02.702Z,19.58
2022-11-20T00:26:29.894Z,21.23
2022-11-20T00:29:05.619Z,23.90
2022-11-20T00:31:34.172Z,23.67
2022-11-20T00:34:03.507Z,22.35
2022-11-20T00:36:34.076Z,23.40
2022-11-20T00:39:03.070Z,21.73
2022-11-20T00:41:33.031Z,21.50
2022-11-20T00:43:59.946Z,21.40
2022-11-20T00:46:28.744Z,21.88
2022-11-20T00:48:55.657Z,26.67
2022-11-20T00:51:24.519Z,19.67
2022-11-20T00:53:53.609Z,22.70
2022-11-20T00:56:20.723Z,17.70
2022-11-20T00:58:51.399Z,21.60
2022-11-20T01:01:26.957Z,21.35
2022-11-20T01:03:58.285Z,19.83
2022-11-20T01:06:35.811Z,19.70
2022-11-20T01:09:11.979Z,22.52
2022-11-20T01:11:45.386Z,22.60
2022-11-20T01:14:20.189Z,22.35
2022-11-20T01:16:50.911Z,23.33
2022-11-20T01:19:23.787Z,22.70
2022-11-20T01:21:55.611Z,25.55
2022-11-20T01:24:25.448Z,28.38
2022-11-20T01:26:53.036Z,25.25
2022-11-20T01:29:23.372Z,29.00
2022-11-20T01:31:53.602Z,30.50
2022-11-20T01:34:21.467Z,31.05
2022-11-20T01:36:49.835Z,26.27
2022-11-20T01:39:24.619Z,29.45
2022-11-20T01:42:11.407Z,31.40
2022-11-20T01:44:59.278Z,26.52
2022-11-20T01:47:41.042Z,26.55
2022-11-20T01:52:49.597Z,31.00
2022-11-20T01:55:22.988Z,30.75
2022-11-20T01:57:52.739Z,30.13
2022-11-20T02:00:21.660Z,32.85
2022-11-20T02:03:04.834Z,33.83
2022-11-20T02:06:00.187Z,33.50
2022-11-20T02:08:34.561Z,34.60
2022-11-20T02:11:01.184Z,34.53
2022-11-20T02:13:45.479Z,33.95
2022-11-20T02:16:45.209Z,34.55
2022-11-20T02:19:30.175Z,31.98
2022-11-20T02:22:05.613Z,30.83
2022-11-20T02:24:34.824Z,32.65
2022-11-20T02:27:13.799Z,37.38
2022-11-20T02:29:47.490Z,33.03
2022-11-20T02:32:34.089Z,28.13
2022-11-20T02:35:09.843Z,28.23
2022-11-20T02:37:42.853Z,25.83
2022-11-20T02:40:09.991Z,30.55
2022-11-20T02:42:37.602Z,31.55
2022-11-20T02:45:08.073Z,30.75
2022-11-20T02:47:34.957Z,34.17
2022-11-20T02:50:01.568Z,28.17
2022-11-20T02:52:30.564Z,30.23
2022-11-20T02:54:57.062Z,32.55
2022-11-20T02:57:25.859Z,31.98
2022-11-20T02:59:52.548Z,27.08
2022-11-20T03:02:21.581Z,27.90
2022-11-20T03:04:48.102Z,26.92
2022-11-20T03:07:14.890Z,32.15
2022-11-20T03:09:46.286Z,28.77
2022-11-20T03:12:15.494Z,32.15
2022-11-20T03:14:41.988Z,24.27
2022-11-20T03:17:08.534Z,26.23
2022-11-20T03:19:35.514Z,32.47
2022-11-20T03:22:04.260Z,27.83
2022-11-20T03:24:30.864Z,26.92
2022-11-20T03:27:02.386Z,26.83
2022-11-20T03:29:28.904Z,27.58
2022-11-20T03:31:55.561Z,26.67
2022-11-20T03:34:26.910Z,33.05
2022-11-20T03:36:53.490Z,26.45
2022-11-20T03:39:20.263Z,34.85
2022-11-20T03:41:49.444Z,31.27
2022-11-20T03:44:15.997Z,30.45
2022-11-20T03:46:49.872Z,25.52
2022-11-20T03:49:16.444Z,26.17
2022-11-20T03:51:45.736Z,29.08
2022-11-20T03:54:14.394Z,31.88
2022-11-20T03:56:43.180Z,25.55
2022-11-20T03:59:11.367Z,27.45
2022-11-20T04:01:38.741Z,26.40
2022-11-20T04:04:08.148Z,28.42
2022-11-20T04:09:02.809Z,28.10
2022-11-20T04:11:34.142Z,28.90
2022-11-20T04:14:03.273Z,32.13
2022-11-20T04:16:32.251Z,25.17
2022-11-20T04:19:04.830Z,26.42
2022-11-20T04:21:31.630Z,23.10
2022-11-20T04:23:59.059Z,22.98
2022-11-20T04:26:27.387Z,28.98
2022-11-20T04:28:57.201Z,25.48
2022-11-20T04:31:26.808Z,23.55
2022-11-20T04:33:56.147Z,30.42
2022-11-20T04:39:00.368Z,25.42
2022-11-20T04:41:30.218Z,25.33
2022-11-20T04:44:03.938Z,26.73
2022-11-20T04:46:35.915Z,24.48
2022-11-20T04:49:05.079Z,23.95
2022-11-20T04:51:36.934Z,22.35
2022-11-20T04:54:03.674Z,24.92
2022-11-20T04:56:30.164Z,20.85
2022-11-20T04:58:59.662Z,22.08
2022-11-20T05:01:28.535Z,23.27
2022-11-20T05:03:55.225Z,26.55
2022-11-20T05:06:22.593Z,26.98
2022-11-20T05:08:49.271Z,32.10
2022-11-20T05:11:20.593Z,25.80
2022-11-20T05:13:50.564Z,30.88
2022-11-20T05:16:23.162Z,28.90
2022-11-20T05:18:53.326Z,27.27
2022-11-20T05:21:20.218Z,24.85
2022-11-20T05:23:47.005Z,23.15
2022-11-20T05:26:16.640Z,27.30
2022-11-20T05:28:43.648Z,25.30
2022-11-20T05:31:25.040Z,25.30
2022-11-20T05:33:53.543Z,21.27
2022-11-20T05:36:22.307Z,25.77
2022-11-20T05:38:51.229Z,27.55
2022-11-20T05:41:20.326Z,23.60
2022-11-20T05:43:51.175Z,27.42
2022-11-20T05:46:27.862Z,23.42
2022-11-20T05:48:58.777Z,22.83
2022-11-20T05:51:26.035Z,22.20
2022-11-20T05:53:54.798Z,20.52
2022-11-20T05:56:22.991Z,24.85
2022-11-20T05:58:52.254Z,23.70
2022-11-20T06:01:21.672Z,28.45
2022-11-20T06:03:48.960Z,24.58
2022-11-20T06:06:16.520Z,22.65
2022-11-20T06:08:43.286Z,25.25
2022-11-20T06:11:12.833Z,24.05
2022-11-20T06:13:42.844Z,23.02
2022-11-20T06:16:16.853Z,20.92
2022-11-20T06:18:46.074Z,22.02
2022-11-20T06:21:18.086Z,23.05
2022-11-20T06:23:46.127Z,24.52
2022-11-20T06:26:22.735Z,21.50
2022-11-20T06:28:53.666Z,22.60
2022-11-20T06:31:22.960Z,21.35
2022-11-20T06:33:50.265Z,21.77
2022-11-20T06:36:23.951Z,19.98
2022-11-20T06:38:50.667Z,20.30
2022-11-20T06:41:21.731Z,20.67
2022-11-20T06:43:48.604Z,21.20
2022-11-20T06:46:23.183Z,22.55
2022-11-20T06:48:52.374Z,21.08
2022-11-20T06:51:19.677Z,23.55
2022-11-20T06:53:46.520Z,21.25
2022-11-20T06:56:13.095Z,23.70
2022-11-20T06:58:39.672Z,21.48
2022-11-20T07:01:12.000Z,24.95
2022-11-20T07:03:41.760Z,24.02
2022-11-20T07:06:11.168Z,22.42
2022-11-20T07:11:09.516Z,20.70
2022-11-20T07:13:36.385Z,22.58
2022-11-20T07:16:05.852Z,21.83
2022-11-20T07:18:32.518Z,19.88
2022-11-20T07:21:07.439Z,20.85
2022-11-20T07:23:36.815Z,22.48
2022-11-20T07:26:11.749Z,22.52
2022-11-20T07:28:39.194Z,23.15
2022-11-20T07:31:07.869Z,23.73
2022-11-20T07:33:35.386Z,24.58
2022-11-20T07:36:04.632Z,24.25
2022-11-20T07:38:31.290Z,23.90
2022-11-20T07:40:58.661Z,21.85
2022-11-20T07:43:26.478Z,22.75
2022-11-20T07:45:53.213Z,21.98
2022-11-20T07:48:24.370Z,23.45
2022-11-20T07:50:53.122Z,24.00
2022-11-20T07:53:22.780Z,24.13
2022-11-20T07:55:53.509Z,20.23
2022-11-20T07:58:25.343Z,25.95
2022-11-20T08:00:54.212Z,25.17
2022-11-20T08:03:26.009Z,27.10
2022-11-20T08:05:57.424Z,36.78
2022-11-20T08:08:23.958Z,21.92
2022-11-20T08:10:50.541Z,22.05
2022-11-20T08:13:38.136Z,23.75
2022-11-20T08:16:04.990Z,20.70
2022-11-20T08:18:32.644Z,24.42
2022-11-20T08:21:05.700Z,23.20
2022-11-20T08:23:32.445Z,25.58
2022-11-20T08:26:01.201Z,27.60
2022-11-20T08:28:27.742Z,25.15
2022-11-20T08:31:03.071Z,21.40
2022-11-20T08:33:36.873Z,26.55
2022-11-20T08:36:09.658Z,22.38
2022-11-20T08:38:36.188Z,22.02
2022-11-20T08:41:24.540Z,24.30
2022-11-20T08:43:56.575Z,23.77
2022-11-20T08:46:27.369Z,25.50
2022-11-20T08:48:57.148Z,24.83
2022-11-20T08:51:23.660Z,25.92
2022-11-20T08:53:52.472Z,23.77
2022-11-20T08:56:21.571Z,24.00
2022-11-20T09:01:34.667Z,27.73
2022-11-20T09:04:01.242Z,27.13
2022-11-20T09:06:28.045Z,26.88
2022-11-20T09:09:00.714Z,23.15
2022-11-20T09:11:30.086Z,23.15
2022-11-20T09:13:56.660Z,25.73
2022-11-20T09:16:25.873Z,28.73
2022-11-20T09:21:38.833Z,25.13
2022-11-20T09:24:06.180Z,24.27
2022-11-20T09:26:32.726Z,28.10
2022-11-20T09:28:59.224Z,27.45
2022-11-20T09:31:27.243Z,30.10
2022-11-20T09:33:53.788Z,27.48
2022-11-20T09:36:23.563Z,23.65
2022-11-20T09:38:50.091Z,27.02
2022-11-20T09:41:28.360Z,24.98
2022-11-20T09:44:03.899Z,25.17
2022-11-20T09:46:33.404Z,27.95
2022-11-20T09:49:26.299Z,23.30
2022-11-20T09:52:00.929Z,23.92
2022-11-20T09:54:35.234Z,27.13
2022-11-20T09:57:12.127Z,26.45
2022-11-20T09:59:50.596Z,25.20
2022-11-20T10:02:36.268Z,28.25
2022-11-20T10:05:02.734Z,29.40
2022-11-20T10:07:56.140Z,27.23
2022-11-20T10:10:43.822Z,28.75
2022-11-20T10:13:34.589Z,23.88
2022-11-20T10:16:22.533Z,27.20
2022-11-20T10:18:55.454Z,28.60
2022-11-20T10:21:42.824Z,30.63
2022-11-20T10:24:40.068Z,27.33
2022-11-20T10:27:54.152Z,26.23
2022-11-20T10:30:25.843Z,27.13
2022-11-20T10:33:20.708Z,27.35
2022-11-20T10:35:56.544Z,26.58
2022-11-20T10:38:31.584Z,24.13
2022-11-20T10:41:21.222Z,30.40
2022-11-20T10:43:50.652Z,24.58
2022-11-20T10:46:21.029Z,25.85
2022-11-20T10:48:48.382Z,26.58
2022-11-20T10:51:33.427Z,25.17
2022-11-20T10:54:02.925Z,29.15
2022-11-20T10:56:49.679Z,25.77
2022-11-20T10:59:40.988Z,28.75
2022-11-20T11:02:23.052Z,26.67
2022-11-20T11:04:56.036Z,23.95
2022-11-20T11:07:28.559Z,23.88
2022-11-20T11:09:59.201Z,28.52
2022-11-20T11:12:29.738Z,26.77
2022-11-20T11:15:00.986Z,25.48
2022-11-20T11:17:29.437Z,26.00
2022-11-20T11:20:07.586Z,46.60
2022-11-20T11:22:48.676Z,26.98
2022-11-20T11:25:24.313Z,29.67
2022-11-20T11:27:52.502Z,26.35
2022-11-20T11:30:24.306Z,24.15
2022-11-20T11:32:53.163Z,24.50
2022-11-20T11:35:21.204Z,23.80
2022-11-20T11:37:49.328Z,21.55
2022-11-20T11:40:25.663Z,26.88
2022-11-20T11:42:59.852Z,22.50
2022-11-20T11:45:27.068Z,27.23
2022-11-20T11:47:56.945Z,28.52
2022-11-20T11:50:25.919Z,25.55
2022-11-20T11:53:03.160Z,25.25
2022-11-20T11:55:59.740Z,24.10
2022-11-20T11:58:47.047Z,25.67
2022-11-20T12:01:32.940Z,26.38
2022-11-20T12:04:17.972Z,25.75
2022-11-20T12:07:06.110Z,26.00
2022-11-20T12:09:52.820Z,28.63
2022-11-20T12:12:23.335Z,26.67
2022-11-20T12:14:54.080Z,20.20
2022-11-20T12:17:23.201Z,20.73
2022-11-20T12:22:35.967Z,22.80
2022-11-20T12:25:17.655Z,17.38
2022-11-20T12:28:08.416Z,14.25
2022-11-20T12:31:12.328Z,20.27
2022-11-20T12:33:48.360Z,21.20
2022-11-20T12:36:14.828Z,20.45
2022-11-20T12:38:44.144Z,19.48
2022-11-20T12:41:51.281Z,18.55
2022-11-20T12:44:45.336Z,19.77
2022-11-20T12:47:23.692Z,18.20
2022-11-20T12:50:14.707Z,18.30
2022-11-20T12:53:20.978Z,20.10
2022-11-20T12:56:12.628Z,21.45
2022-11-20T12:58:48.823Z,18.23
2022-11-20T13:01:40.729Z,18.77
2022-11-20T13:04:36.954Z,26.35
2022-11-20T13:07:25.838Z,22.85
2022-11-20T13:09:53.255Z,22.17
2022-11-20T13:12:41.751Z,20.63
2022-11-20T13:15:36.923Z,21.27
2022-11-20T13:18:12.035Z,18.80
2022-11-20T13:20:44.505Z,19.80
2022-11-20T13:23:24.735Z,16.05
2022-11-20T13:25:53.855Z,15.63
2022-11-20T13:30:52.624Z,15.13
2022-11-20T13:33:39.170Z,18.92
2022-11-20T13:36:23.953Z,16.15
2022-11-20T13:38:53.126Z,15.43
2022-11-20T13:44:12.354Z,18.30
2022-11-20T13:46:45.728Z,17.25
2022-11-20T13:49:24.534Z,21.33
2022-11-20T13:51:54.939Z,19.05
2022-11-20T13:54:45.114Z,19.75
2022-11-20T13:57:37.885Z,21.40
2022-11-20T14:00:17.141Z,22.55
2022-11-20T14:02:45.275Z,23.65
2022-11-20T14:05:24.220Z,24.40
2022-11-20T14:07:52.871Z,23.95
2022-11-20T14:10:32.117Z,24.65
2022-11-20T14:12:59.845Z,27.13
2022-11-20T14:15:39.223Z,24.67
2022-11-20T14:18:22.979Z,30.13
2022-11-20T14:20:52.019Z,29.92
2022-11-20T14:23:30.816Z,28.48
2022-11-20T14:25:57.878Z,27.25
2022-11-20T14:28:32.009Z,28.42
2022-11-20T14:31:01.056Z,25.92
2022-11-20T14:33:28.391Z,29.23
2022-11-20T14:35:57.533Z,27.92
2022-11-20T14:38:34.587Z,30.85
2022-11-20T14:41:21.859Z,26.58
2022-11-20T14:43:55.600Z,26.73
2022-11-20T14:46:23.010Z,25.90
2022-11-20T14:48:56.923Z,27.85
2022-11-20T14:51:35.793Z,23.38
2022-11-20T14:54:16.822Z,23.20
2022-11-20T14:56:54.681Z,21.23
2022-11-20T14:59:29.824Z,22.35
2022-11-20T15:02:09.865Z,21.30
2022-11-20T15:04:47.281Z,22.55
2022-11-20T15:07:25.913Z,21.05
2022-11-20T15:10:08.599Z,19.13
2022-11-20T15:12:38.642Z,22.13
2022-11-20T15:15:06.782Z,21.88
2022-11-20T15:17:39.090Z,21.88
2022-11-20T15:20:14.198Z,21.20
2022-11-20T15:22:46.015Z,21.95
2022-11-20T15:25:17.765Z,22.90
2022-11-20T15:27:45.680Z,20.85
2022-11-20T15:30:20.880Z,25.05
2022-11-20T15:32:50.163Z,21.48
2022-11-20T15:37:43.334Z,25.40
2022-11-20T15:40:10.740Z,27.73
2022-11-20T15:42:37.587Z,27.52
2022-11-20T15:45:06.900Z,22.33
2022-11-20T15:53:23.812Z,28.65
2022-11-20T15:55:50.428Z,23.05
2022-11-20T15:58:20.480Z,25.10
2022-11-20T16:00:47.576Z,21.58
2022-11-20T16:03:19.518Z,23.00
2022-11-20T16:05:48.895Z,22.70
2022-11-20T16:08:15.835Z,24.83
2022-11-20T16:10:42.634Z,24.95
2022-11-20T16:13:36.369Z,25.98
2022-11-20T16:16:10.340Z,26.58
2022-11-20T16:18:36.982Z,24.67
2022-11-20T16:21:11.991Z,24.45
2022-11-20T16:23:44.457Z,25.10
2022-11-20T16:26:21.704Z,21.70
2022-11-20T16:28:50.488Z,23.85
2022-11-20T16:31:18.948Z,25.95
2022-11-20T16:33:53.227Z,28.52
2022-11-20T16:36:21.227Z,30.58
2022-11-20T16:38:47.979Z,29.20
2022-11-20T16:41:14.620Z,28.42
2022-11-20T16:43:51.776Z,27.35
2022-11-20T16:46:24.254Z,31.55
2022-11-20T16:49:11.790Z,31.05
2022-11-20T16:51:38.322Z,28.95
2022-11-20T16:54:09.988Z,32.70
2022-11-20T16:56:41.322Z,36.00
2022-11-20T16:59:07.860Z,36.58
2022-11-20T17:01:40.008Z,38.35
2022-11-20T17:04:08.739Z,38.80
2022-11-20T17:06:41.047Z,34.67
2022-11-20T17:09:10.885Z,38.90
2022-11-20T17:11:37.956Z,37.67
2022-11-20T17:14:09.560Z,40.05
2022-11-20T17:16:38.790Z,39.28
2022-11-20T17:21:36.318Z,33.63
2022-11-20T17:24:07.310Z,36.30
2022-11-20T17:26:37.215Z,31.58
2022-11-20T17:29:10.376Z,37.38
2022-11-20T17:31:38.647Z,34.25
2022-11-20T17:34:13.469Z,37.10
2022-11-20T17:36:45.032Z,36.90
2022-11-20T17:39:19.837Z,35.58
2022-11-20T17:42:08.930Z,34.22
2022-11-20T17:44:41.765Z,34.00
2022-11-20T17:47:08.715Z,33.70
2022-11-20T17:49:35.213Z,36.03
2022-11-20T17:52:01.746Z,35.67
2022-11-20T17:54:28.296Z,37.45
2022-11-20T17:57:13.359Z,30.70
2022-11-20T17:59:40.326Z,29.17
2022-11-20T18:02:14.258Z,32.33
2022-11-20T18:04:43.292Z,28.58
2022-11-20T18:07:14.604Z,23.20
2022-11-20T18:09:41.120Z,23.88
2022-11-20T18:12:07.693Z,26.67
2022-11-20T18:14:36.592Z,30.98
2022-11-20T18:17:11.238Z,38.88
2022-11-20T18:19:51.322Z,45.88
2022-11-20T18:22:29.780Z,36.15
2022-11-20T18:24:56.279Z,37.33
2022-11-20T18:27:27.416Z,39.83
2022-11-20T18:29:56.410Z,41.60
2022-11-20T18:32:25.617Z,37.83
2022-11-20T18:34:52.153Z,38.38
2022-11-20T18:37:23.435Z,38.92
2022-11-20T18:39:50.539Z,42.17
2022-11-20T18:42:36.363Z,45.75
2022-11-20T18:45:04.606Z,47.08
2022-11-20T18:47:35.684Z,45.72
2022-11-20T18:50:02.277Z,42.83
2022-11-20T18:52:30.305Z,50.90
2022-11-20T18:54:56.925Z,43.53
2022-11-20T18:57:27.946Z,45.03
2022-11-20T18:59:55.730Z,54.70
2022-11-20T19:02:22.560Z,51.45
2022-11-20T19:04:51.451Z,38.45
2022-11-20T19:07:18.386Z,37.38
2022-11-20T19:09:49.190Z,40.08
2022-11-20T19:12:16.609Z,42.97
2022-11-20T19:14:45.892Z,38.90
2022-11-20T19:19:47.562Z,41.97
2022-11-20T19:22:19.709Z,39.40
2022-11-20T19:24:48.356Z,37.67
2022-11-20T19:27:17.040Z,35.53
2022-11-20T19:29:45.904Z,32.67
2022-11-20T19:32:12.494Z,32.17
2022-11-20T19:34:41.569Z,36.33
2022-11-20T19:37:08.061Z,32.50
2022-11-20T19:39:36.292Z,33.50
2022-11-20T19:42:02.845Z,32.17
2022-11-20T19:44:32.963Z,29.27
2022-11-20T19:47:04.006Z,34.30
2022-11-20T19:49:30.637Z,31.90
2022-11-20T19:51:57.175Z,29.80
2022-11-20T19:54:23.781Z,31.92
2022-11-20T19:56:50.665Z,29.70
2022-11-20T19:59:19.811Z,25.10
2022-11-20T20:01:46.459Z,28.20
2022-11-20T20:04:13.096Z,23.77
2022-11-20T20:06:44.166Z,20.23
2022-11-20T20:09:13.757Z,20.88
2022-11-20T20:11:45.707Z,21.98
2022-11-20T20:14:16.573Z,23.67
2022-11-20T20:16:43.286Z,20.92
2022-11-20T20:19:15.094Z,21.98
2022-11-20T20:21:44.642Z,22.58
2022-11-20T20:24:13.446Z,25.73
2022-11-20T20:26:40.143Z,24.35
2022-11-20T20:29:06.752Z,19.73
2022-11-20T20:31:37.777Z,16.60
2022-11-20T20:34:05.361Z,14.30
2022-11-20T20:36:32.044Z,14.32
2022-11-20T20:39:08.141Z,15.00
2022-11-20T20:41:34.662Z,19.83
2022-11-20T20:44:20.737Z,23.77
2022-11-20T20:46:47.251Z,23.80
2022-11-20T20:49:13.751Z,24.35
2022-11-20T20:51:40.241Z,25.77
2022-11-20T20:54:06.870Z,26.33
2022-11-20T20:56:35.658Z,25.73
2022-11-20T20:59:06.447Z,22.58
2022-11-20T21:01:35.338Z,26.13
2022-11-20T21:04:04.152Z,23.73
2022-11-20T21:06:32.935Z,21.55
2022-11-20T21:09:02.152Z,20.05
2022-11-20T21:11:30.894Z,22.67
2022-11-20T21:13:57.459Z,21.55
2022-11-20T21:16:25.052Z,19.65
2022-11-20T21:18:56.198Z,23.70
2022-11-20T21:21:46.378Z,17.42
2022-11-20T21:24:15.026Z,17.70
2022-11-20T21:26:43.811Z,17.50
2022-11-20T21:29:13.940Z,18.08
2022-11-20T21:31:43.117Z,18.67
2022-11-20T21:34:18.595Z,18.48
2022-11-20T21:36:45.749Z,14.80
2022-11-20T21:39:18.905Z,16.48
2022-11-20T21:41:48.141Z,20.48
2022-11-20T21:44:34.828Z,20.83
2022-11-20T21:47:01.904Z,27.13
2022-11-20T21:49:33.259Z,22.98
2022-11-20T21:52:02.327Z,23.45
2022-11-20T21:54:31.547Z,21.40
2022-11-20T21:57:00.327Z,23.90
2022-11-20T21:59:26.900Z,22.17
2022-11-20T22:01:55.735Z,12.57
2022-11-20T22:04:24.939Z,14.00
2022-11-20T22:06:51.700Z,13.85
2022-11-20T22:09:20.529Z,12.82
2022-11-20T22:11:51.811Z,16.15
2022-11-20T22:14:21.104Z,16.75
2022-11-20T22:16:54.545Z,18.40
2022-11-20T22:19:22.839Z,18.13
2022-11-20T22:21:55.490Z,16.45
2022-11-20T22:24:23.310Z,14.88
2022-11-20T22:26:50.363Z,15.45
2022-11-20T22:29:20.855Z,20.20
2022-11-20T22:31:53.865Z,18.52
2022-11-20T22:34:20.762Z,20.70
2022-11-20T22:36:50.117Z,22.77
2022-11-20T22:39:17.589Z,16.77
2022-11-20T22:41:44.123Z,17.13
2022-11-20T22:44:16.563Z,16.85
2022-11-20T22:46:43.143Z,16.63
2022-11-20T22:49:09.919Z,16.08
2022-11-20T22:51:38.869Z,16.08
2022-11-20T22:54:06.408Z,18.77
2022-11-20T22:56:36.200Z,18.00
2022-11-20T22:59:05.463Z,17.25
2022-11-20T23:01:34.665Z,16.45
2022-11-20T23:04:05.430Z,19.17
2022-11-20T23:06:37.903Z,15.52
2022-11-20T23:09:06.228Z,15.30
2022-11-20T23:11:33.708Z,20.85
2022-11-20T23:14:03.006Z,17.50
2022-11-20T23:16:31.335Z,13.95
2022-11-20T23:19:04.560Z,13.95
2022-11-20T23:21:34.084Z,15.60
2022-11-20T23:24:03.811Z,15.88
2022-11-20T23:26:35.038Z,18.33
2022-11-20T23:29:01.900Z,16.80
2022-11-20T23:31:33.696Z,17.48
2022-11-20T23:34:00.421Z,18.40
2022-11-20T23:36:27.381Z,18.77
2022-11-20T23:38:56.733Z,20.35
2022-11-20T23:43:57.309Z,18.35
2022-11-20T23:46:23.877Z,26.92
2022-11-20T23:48:55.161Z,19.77
2022-11-20T23:51:21.774Z,23.15
2022-11-20T23:53:48.334Z,22.92
2022-11-20T23:56:15.004Z,24.30
2022-11-20T23:58:42.051Z,24.70
